Billings, MT (59101)

10:41 AM MDT on August 28, 2016 (GMT -0600)
Jupiter Sulphur | | Change Station

Elev 3114 ft 45.78 °N, 108.49 °W | Updated 3 minutes ago

Scattered Clouds
Scattered Clouds
75.1 °F
Feels Like 77 °F
N
3.0
Wind Variable Wind from South
Gusts 6.0 mph

Today
High -- | Low -- °F
--% Chance of Precip.
Yesterday
High -- | Low -- °F
Precip. -- in
Pressure 29.92 in
Visibility 10.0 miles
Clouds Few 10000 ft
Scattered Clouds 25000 ft
Heat Index 77 °F
Dew Point 42 °F
Humidity 31%
Rainfall 0.00 in
Snow Depth Not available.
6:30 AM 7:58 PM
Waning Crescent, 14% visible
METAR KBIL 281553Z 23011KT 10SM FEW100 SCT250 21/03 A3001 RMK AO2 SLP131 HZ ALQDS T02110033
Pressure 29.92 in
Visibility 10.0 miles
Clouds Few 10000 ft
Scattered Clouds 25000 ft
Heat Index 77 °F
Dew Point 42 °F
Humidity 31%
Rainfall 0.00 in
Snow Depth Not available.
6:30 AM 7:58 PM
Waning Crescent, 14% visible
METAR KBIL 281553Z 23011KT 10SM FEW100 SCT250 21/03 A3001 RMK AO2 SLP131 HZ ALQDS T02110033

10-Day Weather Forecast

Almanac

Astronomy

Aug. 28, 2016 Rise Set
Actual Time
Civil Twilight
Nautical Twilight
Astronomical Twilight
Moon
Length of Visible Light
Length of Day
Tomorrow will be .
, % of the Moon is Illuminated

Today's Extremes

State Highs State Lows

Community

WunderPhotos

Upload Photos

1,935,627 photos uploaded!

WunderBlog® & News

Nearby

Air Quality

  Air Quality AQ Index Pollutant
Not available.

Snow Depth

Station Depth Elevation

Earthquake Activity

City Distance Mag. Time & Date
Minimum magnitude displayed is 2.5.

Coastal Water Temperatures

Place Temperature

Stations

Nearby Weather Stations

Station Location Temp. Windchill Dew Point Humidity Wind Precip. Elev Updated Type
                   

Watches & Warnings

There are currently no watches in effect.